createdAt,value
2019-06-26T00:00:16.575Z,6.50
2019-06-26T00:02:51.683Z,6.12
2019-06-26T00:05:25.695Z,7.35
2019-06-26T00:07:59.933Z,6.53
2019-06-26T00:13:07.713Z,7.60
2019-06-26T00:15:41.764Z,7.75
2019-06-26T00:18:15.792Z,7.67
2019-06-26T00:20:50.225Z,8.08
2019-06-26T00:23:24.097Z,7.72
2019-06-26T00:25:58.644Z,7.05
2019-06-26T00:28:33.056Z,7.50
2019-06-26T00:31:06.986Z,6.15
2019-06-26T00:33:40.939Z,6.65
2019-06-26T00:36:15.105Z,6.78
2019-06-26T00:38:49.344Z,7.80
2019-06-26T00:41:23.367Z,6.90
2019-06-26T00:43:57.414Z,6.80
2019-06-26T00:46:33.091Z,6.80
2019-06-26T00:49:06.924Z,7.22
2019-06-26T00:51:40.805Z,6.95
2019-06-26T00:54:15.330Z,6.53
2019-06-26T00:56:49.311Z,6.30
2019-06-26T00:59:23.368Z,5.97
2019-06-26T01:01:57.478Z,6.25
2019-06-26T01:04:36.255Z,6.17
2019-06-26T01:07:11.385Z,6.15
2019-06-26T01:09:45.591Z,6.50
2019-06-26T01:12:20.055Z,6.12
2019-06-26T01:14:54.857Z,5.83
2019-06-26T01:17:28.856Z,6.30
2019-06-26T01:20:02.960Z,6.90
2019-06-26T01:22:37.203Z,5.87
2019-06-26T01:25:11.232Z,5.25
2019-06-26T01:27:45.436Z,5.97
2019-06-26T01:30:19.628Z,5.55
2019-06-26T01:32:53.663Z,5.63
2019-06-26T01:35:28.191Z,5.83
2019-06-26T01:38:02.634Z,6.12
2019-06-26T01:40:36.778Z,6.45
2019-06-26T01:43:11.133Z,5.45
2019-06-26T01:45:45.355Z,6.03
2019-06-26T01:48:19.378Z,5.73
2019-06-26T01:50:54.747Z,5.87
2019-06-26T01:53:29.118Z,5.85
2019-06-26T01:58:38.097Z,5.65
2019-06-26T02:01:12.320Z,5.33
2019-06-26T02:03:46.354Z,5.33
2019-06-26T02:06:20.535Z,4.90
2019-06-26T02:08:54.702Z,4.97
2019-06-26T02:11:29.872Z,5.85
2019-06-26T02:14:04.042Z,5.72
2019-06-26T02:16:41.692Z,5.35
2019-06-26T02:19:25.249Z,5.00
2019-06-26T02:22:03.656Z,5.60
2019-06-26T02:24:38.288Z,5.15
2019-06-26T02:27:15.278Z,5.83
2019-06-26T02:29:51.357Z,5.12
2019-06-26T02:32:26.143Z,4.70
2019-06-26T02:35:01.960Z,5.92
2019-06-26T02:37:38.559Z,4.92
2019-06-26T02:40:15.159Z,5.35
2019-06-26T02:42:49.704Z,5.37
2019-06-26T02:45:25.332Z,5.85
2019-06-26T02:48:01.636Z,4.78
2019-06-26T02:50:37.237Z,5.15
2019-06-26T02:53:13.051Z,5.28
2019-06-26T02:55:47.582Z,4.90
2019-06-26T02:58:24.249Z,5.53
2019-06-26T03:01:07.998Z,4.92
2019-06-26T03:03:41.870Z,5.58
2019-06-26T03:06:16.687Z,5.80
2019-06-26T03:08:50.975Z,4.97
2019-06-26T03:11:27.080Z,5.47
2019-06-26T03:14:03.741Z,5.67
2019-06-26T03:16:38.720Z,7.30
2019-06-26T03:19:13.250Z,6.35
2019-06-26T03:21:49.921Z,7.58
2019-06-26T03:24:25.946Z,6.62
2019-06-26T03:27:00.091Z,6.90
2019-06-26T03:29:34.169Z,8.17
2019-06-26T03:32:08.384Z,8.50
2019-06-26T03:34:43.694Z,9.10
2019-06-26T03:37:17.646Z,8.27
2019-06-26T03:42:26.693Z,7.25
2019-06-26T03:45:00.771Z,9.47
2019-06-26T03:47:34.864Z,8.15
2019-06-26T03:50:08.923Z,10.13
2019-06-26T03:52:42.890Z,8.95
2019-06-26T03:55:17.393Z,10.20
2019-06-26T03:57:51.445Z,9.70
2019-06-26T04:00:32.293Z,9.70
2019-06-26T04:03:06.457Z,8.85
2019-06-26T04:05:40.530Z,9.77
2019-06-26T04:08:14.822Z,9.93
2019-06-26T04:10:48.843Z,10.93
2019-06-26T04:13:23.365Z,10.38
2019-06-26T04:15:58.844Z,12.30
2019-06-26T04:18:32.918Z,11.87
2019-06-26T04:21:07.864Z,10.10
2019-06-26T04:23:41.879Z,10.82
2019-06-26T04:26:15.968Z,11.25
2019-06-26T04:28:50.028Z,11.20
2019-06-26T04:31:24.011Z,12.67
2019-06-26T04:33:58.097Z,12.18
2019-06-26T04:39:07.555Z,11.88
2019-06-26T04:41:41.831Z,12.58
2019-06-26T04:44:15.892Z,11.22
2019-06-26T04:46:49.698Z,11.12
2019-06-26T04:49:23.759Z,10.53
2019-06-26T04:51:57.788Z,12.40
2019-06-26T04:54:31.981Z,12.43
2019-06-26T04:59:39.846Z,14.23
2019-06-26T05:02:14.203Z,15.20
2019-06-26T05:04:48.152Z,14.00
2019-06-26T05:07:22.103Z,11.85
2019-06-26T05:09:57.178Z,13.30
2019-06-26T05:12:31.181Z,10.98
2019-06-26T05:15:07.729Z,12.30
2019-06-26T05:17:43.305Z,13.13
2019-06-26T05:20:17.396Z,14.47
2019-06-26T05:22:51.488Z,13.38
2019-06-26T05:27:59.541Z,12.82
2019-06-26T05:30:34.573Z,8.75
2019-06-26T05:33:08.674Z,9.87
2019-06-26T05:35:42.734Z,7.28
2019-06-26T05:38:16.650Z,6.78
2019-06-26T05:40:51.514Z,7.12
2019-06-26T05:43:27.236Z,5.60
2019-06-26T05:46:01.209Z,4.62
2019-06-26T05:48:35.255Z,4.12
2019-06-26T05:51:10.258Z,3.45
2019-06-26T05:53:44.373Z,4.77
2019-06-26T05:56:18.596Z,3.87
2019-06-26T05:58:52.517Z,3.00
2019-06-26T06:01:28.017Z,4.05
2019-06-26T06:04:02.547Z,4.15
2019-06-26T06:06:41.794Z,3.27
2019-06-26T06:09:13.299Z,3.45
2019-06-26T06:11:48.944Z,3.62
2019-06-26T06:14:23.134Z,2.80
2019-06-26T06:16:57.232Z,2.70
2019-06-26T06:19:30.901Z,3.27
2019-06-26T06:22:05.858Z,1.92
2019-06-26T06:24:40.085Z,2.90
2019-06-26T06:27:14.820Z,2.37
2019-06-26T06:29:48.762Z,3.30
2019-06-26T06:32:23.479Z,2.37
2019-06-26T06:34:57.505Z,2.15
2019-06-26T06:37:32.051Z,3.12
2019-06-26T06:40:08.442Z,3.00
2019-06-26T06:42:42.678Z,2.85
2019-06-26T06:45:16.797Z,2.97
2019-06-26T06:47:50.775Z,2.58
2019-06-26T06:50:25.695Z,3.25
2019-06-26T06:53:02.495Z,3.02
2019-06-26T06:55:38.007Z,2.72
2019-06-26T06:58:12.205Z,3.50
2019-06-26T07:00:46.411Z,2.97
2019-06-26T07:03:20.652Z,2.75
2019-06-26T07:05:56.597Z,2.15
2019-06-26T07:08:30.767Z,3.02
2019-06-26T07:11:05.157Z,2.05
2019-06-26T07:13:39.954Z,2.92
2019-06-26T07:16:14.070Z,2.70
2019-06-26T07:18:49.430Z,3.15
2019-06-26T07:21:23.982Z,1.95
2019-06-26T07:23:58.326Z,3.00
2019-06-26T07:26:32.394Z,2.20
2019-06-26T07:29:06.638Z,2.20
2019-06-26T07:31:40.476Z,2.03
2019-06-26T07:36:49.664Z,2.30
2019-06-26T07:39:23.594Z,2.20
2019-06-26T07:41:57.582Z,2.25
2019-06-26T07:44:31.909Z,2.35
2019-06-26T07:47:21.864Z,2.22
2019-06-26T07:49:41.688Z,2.05
2019-06-26T07:52:16.702Z,2.00
2019-06-26T07:57:24.534Z,2.62
2019-06-26T07:59:58.501Z,2.00
2019-06-26T08:02:34.096Z,2.67
2019-06-26T08:05:09.942Z,2.27
2019-06-26T08:07:47.112Z,1.65
2019-06-26T08:10:20.979Z,3.33
2019-06-26T08:12:55.941Z,1.93
2019-06-26T08:15:30.108Z,2.25
2019-06-26T08:18:04.424Z,2.02
2019-06-26T08:20:55.051Z,2.47
2019-06-26T08:23:16.966Z,1.70
2019-06-26T08:25:51.022Z,2.08
2019-06-26T08:28:25.064Z,2.12
2019-06-26T08:30:59.378Z,2.30
2019-06-26T08:33:33.733Z,1.53
2019-06-26T08:36:07.689Z,2.22
2019-06-26T08:38:41.767Z,2.23
2019-06-26T08:41:15.789Z,2.10
2019-06-26T08:43:49.941Z,3.95
2019-06-26T08:46:25.224Z,2.02
2019-06-26T08:49:00.303Z,3.08
2019-06-26T08:51:34.425Z,2.17
2019-06-26T08:54:09.504Z,3.10
2019-06-26T08:56:43.426Z,1.80
2019-06-26T08:59:17.828Z,2.15
2019-06-26T09:01:51.784Z,1.60
2019-06-26T09:04:25.755Z,1.70
2019-06-26T09:07:00.102Z,2.15
2019-06-26T09:09:52.636Z,1.77
2019-06-26T09:12:31.341Z,2.30
2019-06-26T09:15:07.008Z,1.50
2019-06-26T09:17:40.977Z,2.55
2019-06-26T09:20:34.263Z,1.42
2019-06-26T09:23:26.699Z,2.33
2019-06-26T09:26:02.094Z,1.90
2019-06-26T09:28:36.326Z,1.77
2019-06-26T09:31:12.053Z,1.67
2019-06-26T09:33:46.388Z,2.15
2019-06-26T09:36:21.291Z,2.17
2019-06-26T09:38:58.009Z,2.58
2019-06-26T09:41:31.979Z,1.80
2019-06-26T09:44:06.029Z,2.12
2019-06-26T09:46:40.287Z,1.50
2019-06-26T09:49:14.267Z,1.98
2019-06-26T09:51:57.940Z,1.93
2019-06-26T09:54:32.518Z,1.65
2019-06-26T09:57:07.360Z,2.23
2019-06-26T09:59:42.315Z,2.35
2019-06-26T10:02:19.606Z,2.10
2019-06-26T10:04:54.630Z,1.87
2019-06-26T10:07:28.805Z,1.98
2019-06-26T10:10:03.053Z,1.92
2019-06-26T10:12:37.484Z,1.27
2019-06-26T10:15:11.824Z,1.32
2019-06-26T10:17:47.174Z,2.67
2019-06-26T10:20:22.297Z,1.65
2019-06-26T10:22:57.750Z,1.72
2019-06-26T10:25:31.714Z,2.60
2019-06-26T10:28:05.778Z,1.90
2019-06-26T10:30:41.185Z,1.80
2019-06-26T10:33:15.177Z,2.52
2019-06-26T10:35:49.721Z,1.60
2019-06-26T10:38:25.556Z,1.80
2019-06-26T10:40:59.784Z,1.77
2019-06-26T10:46:15.134Z,2.77
2019-06-26T10:48:52.523Z,1.62
2019-06-26T10:51:29.449Z,2.25
2019-06-26T10:54:07.159Z,2.52
2019-06-26T10:56:41.783Z,1.65
2019-06-26T10:59:17.160Z,2.50
2019-06-26T11:01:51.271Z,2.15
2019-06-26T11:04:25.873Z,3.15
2019-06-26T11:07:00.451Z,3.12
2019-06-26T11:09:35.301Z,2.60
2019-06-26T11:12:09.722Z,2.02
2019-06-26T11:14:44.178Z,3.87
2019-06-26T11:17:19.968Z,2.20
2019-06-26T11:19:55.697Z,1.80
2019-06-26T11:22:30.074Z,2.08
2019-06-26T11:25:05.200Z,2.47
2019-06-26T11:27:39.909Z,1.60
2019-06-26T11:30:14.303Z,2.10
2019-06-26T11:32:49.020Z,1.82
2019-06-26T11:35:23.860Z,1.95
2019-06-26T11:40:30.741Z,1.75
2019-06-26T11:43:04.532Z,2.07
2019-06-26T11:45:38.725Z,1.80
2019-06-26T11:48:12.848Z,1.40
2019-06-26T11:53:22.705Z,1.98
2019-06-26T11:55:56.671Z,2.17
2019-06-26T11:58:30.754Z,1.72
2019-06-26T12:01:04.851Z,1.90
2019-06-26T12:03:39.218Z,1.60
2019-06-26T12:06:19.049Z,1.77
2019-06-26T12:08:49.401Z,1.80
2019-06-26T12:11:39.860Z,1.82
2019-06-26T12:14:14.833Z,1.70
2019-06-26T12:17:05.850Z,1.42
2019-06-26T12:19:55.787Z,2.10
2019-06-26T12:22:29.784Z,2.92
2019-06-26T12:25:03.768Z,2.00
2019-06-26T12:27:53.568Z,1.55
2019-06-26T12:30:27.569Z,1.60
2019-06-26T12:33:17.375Z,1.85
2019-06-26T12:36:07.295Z,1.67
2019-06-26T12:38:42.299Z,2.05
2019-06-26T12:41:32.370Z,1.52
2019-06-26T12:44:06.381Z,1.65
2019-06-26T12:46:40.625Z,1.80
2019-06-26T12:49:14.408Z,1.82
2019-06-26T12:51:48.380Z,1.70
2019-06-26T12:54:38.085Z,1.80
2019-06-26T12:57:12.682Z,2.00
2019-06-26T12:59:57.212Z,1.47
2019-06-26T13:02:39.050Z,1.87
2019-06-26T13:05:13.096Z,2.05
2019-06-26T13:07:47.285Z,1.80
2019-06-26T13:10:20.982Z,1.75
2019-06-26T13:12:54.776Z,2.25
2019-06-26T13:15:28.789Z,2.30
2019-06-26T13:18:03.463Z,1.95
2019-06-26T13:20:51.711Z,1.82
2019-06-26T13:23:14.854Z,1.40
2019-06-26T13:25:48.657Z,1.70
2019-06-26T13:30:55.806Z,2.12
2019-06-26T13:33:30.639Z,2.12
2019-06-26T13:36:04.858Z,2.20
2019-06-26T13:38:40.260Z,1.70
2019-06-26T13:41:16.002Z,1.45
2019-06-26T13:43:50.275Z,1.92
2019-06-26T13:46:24.684Z,1.92
2019-06-26T13:51:33.426Z,1.82
2019-06-26T13:54:07.400Z,1.47
2019-06-26T13:56:42.006Z,1.70
2019-06-26T13:59:16.160Z,1.80
2019-06-26T14:01:50.973Z,1.37
2019-06-26T14:04:25.417Z,1.87
2019-06-26T14:06:59.380Z,1.75
2019-06-26T14:09:33.040Z,1.50
2019-06-26T14:12:07.071Z,1.90
2019-06-26T14:14:56.782Z,1.80
2019-06-26T14:17:17.216Z,1.40
2019-06-26T14:19:51.254Z,1.80
2019-06-26T14:22:25.126Z,1.85
2019-06-26T14:25:00.160Z,2.42
2019-06-26T14:27:34.176Z,1.80
2019-06-26T14:30:09.532Z,1.87
2019-06-26T14:32:44.282Z,1.42
2019-06-26T14:35:18.501Z,1.77
2019-06-26T14:37:52.422Z,1.67
2019-06-26T14:40:26.700Z,2.40
2019-06-26T14:43:00.669Z,1.80
2019-06-26T14:45:34.649Z,1.72
2019-06-26T14:48:08.844Z,2.50
2019-06-26T14:50:44.222Z,2.10
2019-06-26T14:55:51.511Z,2.00
2019-06-26T14:58:25.935Z,1.80
2019-06-26T15:00:59.583Z,1.67
2019-06-26T15:03:33.338Z,1.75
2019-06-26T15:06:16.248Z,2.52
2019-06-26T15:08:42.747Z,1.90
2019-06-26T15:11:16.793Z,2.27
2019-06-26T15:13:57.023Z,1.65
2019-06-26T15:16:31.218Z,1.67
2019-06-26T15:19:05.095Z,2.08
2019-06-26T15:21:40.094Z,1.85
2019-06-26T15:24:14.177Z,1.50
2019-06-26T15:26:48.232Z,1.60
2019-06-26T15:29:22.011Z,1.57
2019-06-26T15:31:56.445Z,1.50
2019-06-26T15:34:31.048Z,1.50
2019-06-26T15:37:04.942Z,1.90
2019-06-26T15:39:39.473Z,1.70
2019-06-26T15:42:15.223Z,2.00
2019-06-26T15:44:49.115Z,1.70
2019-06-26T15:47:23.007Z,1.45
2019-06-26T15:49:56.865Z,1.72
2019-06-26T15:52:31.701Z,1.55
2019-06-26T15:55:08.557Z,1.80
2019-06-26T15:57:42.467Z,2.15
2019-06-26T16:00:16.649Z,1.60
2019-06-26T16:02:50.984Z,1.65
2019-06-26T16:05:25.027Z,1.80
2019-06-26T16:07:59.878Z,1.82
2019-06-26T16:10:34.723Z,1.52
2019-06-26T16:13:09.834Z,2.45
2019-06-26T16:15:43.862Z,2.10
2019-06-26T16:18:22.547Z,2.20
2019-06-26T16:20:57.111Z,2.08
2019-06-26T16:23:32.256Z,2.27
2019-06-26T16:26:23.090Z,1.90
2019-06-26T16:29:13.170Z,2.00
2019-06-26T16:31:47.425Z,2.02
2019-06-26T16:36:54.599Z,2.10
2019-06-26T16:39:28.965Z,1.75
2019-06-26T16:42:03.042Z,1.40
2019-06-26T16:44:36.902Z,2.20
2019-06-26T16:47:10.908Z,1.77
2019-06-26T16:49:45.347Z,2.40
2019-06-26T16:52:19.487Z,2.10
2019-06-26T16:54:53.824Z,1.65
2019-06-26T16:57:27.885Z,2.00
2019-06-26T17:00:09.420Z,1.55
2019-06-26T17:03:00.736Z,2.10
2019-06-26T17:05:34.722Z,2.12
2019-06-26T17:08:09.800Z,1.80
2019-06-26T17:10:43.927Z,1.65
2019-06-26T17:13:18.354Z,2.12
2019-06-26T17:15:52.395Z,1.75
2019-06-26T17:18:26.633Z,1.95
2019-06-26T17:21:01.761Z,2.40
2019-06-26T17:23:36.652Z,2.33
2019-06-26T17:26:11.186Z,2.22
2019-06-26T17:28:46.181Z,2.15
2019-06-26T17:31:20.344Z,2.75
2019-06-26T17:33:54.577Z,2.80
2019-06-26T17:36:29.088Z,2.87
2019-06-26T17:39:03.193Z,3.42
2019-06-26T17:41:37.446Z,2.65
2019-06-26T17:44:11.619Z,2.60
2019-06-26T17:49:19.605Z,4.15
2019-06-26T17:51:53.680Z,3.45
2019-06-26T17:54:30.519Z,4.20
2019-06-26T17:57:10.195Z,4.80
2019-06-26T17:59:44.302Z,4.55
2019-06-26T18:02:18.229Z,4.25
2019-06-26T18:04:53.014Z,4.60
2019-06-26T18:10:16.339Z,5.37
2019-06-26T18:12:51.852Z,5.33
2019-06-26T18:15:26.027Z,5.17
2019-06-26T18:20:33.791Z,4.30
2019-06-26T18:25:53.873Z,3.87
2019-06-26T18:28:23.427Z,2.40
2019-06-26T18:30:57.761Z,3.30
2019-06-26T18:33:32.796Z,3.83
2019-06-26T18:36:07.029Z,5.15
2019-06-26T18:38:41.352Z,6.62
2019-06-26T18:41:18.888Z,5.78
2019-06-26T18:43:54.032Z,6.53
2019-06-26T18:46:28.791Z,9.35
2019-06-26T18:49:04.284Z,6.10
2019-06-26T18:51:39.506Z,6.05
2019-06-26T18:54:14.119Z,6.30
2019-06-26T18:56:48.370Z,7.60
2019-06-26T18:59:22.631Z,7.55
2019-06-26T19:01:56.687Z,7.75
2019-06-26T19:04:31.419Z,7.47
2019-06-26T19:07:06.810Z,7.00
2019-06-26T19:09:42.109Z,8.45
2019-06-26T19:12:17.154Z,8.75
2019-06-26T19:14:53.081Z,10.13
2019-06-26T19:20:01.363Z,10.68
2019-06-26T19:22:35.565Z,10.63
2019-06-26T19:25:09.922Z,13.40
2019-06-26T19:27:45.072Z,14.30
2019-06-26T19:30:19.950Z,16.55
2019-06-26T19:32:54.167Z,16.55
2019-06-26T19:35:29.233Z,15.60
2019-06-26T19:38:03.927Z,15.38
2019-06-26T19:40:39.089Z,12.07
2019-06-26T19:43:13.354Z,8.78
2019-06-26T19:45:47.258Z,9.93
2019-06-26T19:48:26.415Z,6.20
2019-06-26T19:51:00.707Z,6.47
2019-06-26T19:53:34.769Z,6.08
2019-06-26T19:58:43.924Z,6.42
2019-06-26T20:01:19.924Z,6.87
2019-06-26T20:03:55.805Z,6.25
2019-06-26T20:06:31.644Z,6.50
2019-06-26T20:09:09.026Z,7.47
2019-06-26T20:11:45.701Z,9.35
2019-06-26T20:14:23.559Z,7.50
2019-06-26T20:17:00.110Z,7.47
2019-06-26T20:19:35.895Z,8.08
2019-06-26T20:22:11.376Z,5.90
2019-06-26T20:24:46.920Z,6.80
2019-06-26T20:27:22.913Z,5.22
2019-06-26T20:29:58.859Z,6.67
2019-06-26T20:32:33.925Z,6.65
2019-06-26T20:35:09.349Z,7.60
2019-06-26T20:37:44.138Z,6.83
2019-06-26T20:40:18.240Z,6.95
2019-06-26T20:42:51.998Z,7.62
2019-06-26T20:45:26.628Z,6.53
2019-06-26T20:48:00.965Z,5.73
2019-06-26T20:53:20.079Z,5.22
2019-06-26T20:55:54.168Z,5.92
2019-06-26T20:58:29.410Z,5.55
2019-06-26T21:01:03.336Z,5.42
2019-06-26T21:03:37.529Z,5.27
2019-06-26T21:06:12.137Z,6.50
2019-06-26T21:09:05.275Z,7.70
2019-06-26T21:11:39.862Z,6.95
2019-06-26T21:14:13.975Z,7.10
2019-06-26T21:16:48.248Z,5.43
2019-06-26T21:21:55.821Z,6.15
2019-06-26T21:24:29.417Z,6.30
2019-06-26T21:27:04.313Z,5.80
2019-06-26T21:29:38.049Z,6.37
2019-06-26T21:32:12.553Z,6.70
2019-06-26T21:34:46.403Z,6.05
2019-06-26T21:37:20.488Z,6.47
2019-06-26T21:39:54.580Z,5.60
2019-06-26T21:42:29.413Z,5.45
2019-06-26T21:45:03.129Z,5.40
2019-06-26T21:47:37.011Z,5.35
2019-06-26T21:50:11.263Z,5.95
2019-06-26T21:52:45.331Z,5.53
2019-06-26T21:55:33.632Z,7.22
2019-06-26T21:58:14.141Z,6.22
2019-06-26T22:01:06.196Z,5.97
2019-06-26T22:03:58.506Z,6.85
2019-06-26T22:06:35.256Z,5.97
2019-06-26T22:09:12.689Z,6.15
2019-06-26T22:11:47.560Z,6.65
2019-06-26T22:14:21.574Z,7.40
2019-06-26T22:16:55.740Z,7.40
2019-06-26T22:19:30.794Z,7.50
2019-06-26T22:22:04.805Z,5.70
2019-06-26T22:24:39.054Z,6.65
2019-06-26T22:27:13.236Z,7.87
2019-06-26T22:29:47.317Z,6.87
2019-06-26T22:32:21.488Z,7.67
2019-06-26T22:34:56.318Z,6.43
2019-06-26T22:37:29.920Z,6.35
2019-06-26T22:40:05.211Z,6.10
2019-06-26T22:42:39.472Z,8.15
2019-06-26T22:45:13.448Z,6.42
2019-06-26T22:47:47.476Z,7.07
2019-06-26T22:50:21.612Z,6.08
2019-06-26T22:52:55.885Z,6.15
2019-06-26T22:55:30.240Z,6.35
2019-06-26T22:58:05.011Z,5.92
2019-06-26T23:01:33.855Z,6.87
2019-06-26T23:04:20.373Z,6.12
2019-06-26T23:06:55.045Z,8.28
2019-06-26T23:09:28.844Z,6.90
2019-06-26T23:12:03.674Z,6.62
2019-06-26T23:14:37.373Z,6.97
2019-06-26T23:17:11.820Z,6.40
2019-06-26T23:19:45.687Z,5.65
2019-06-26T23:22:20.220Z,5.85
2019-06-26T23:24:54.410Z,4.60
2019-06-26T23:27:28.553Z,5.67
2019-06-26T23:30:03.679Z,5.12
2019-06-26T23:32:37.653Z,6.53
2019-06-26T23:35:11.573Z,5.12
2019-06-26T23:37:45.407Z,5.35
2019-06-26T23:40:20.609Z,5.78
2019-06-26T23:42:55.458Z,5.75
2019-06-26T23:45:29.357Z,5.05
2019-06-26T23:48:04.536Z,5.77
2019-06-26T23:50:39.426Z,5.55
2019-06-26T23:53:13.851Z,5.60
2019-06-26T23:55:47.979Z,6.10
2019-06-26T23:58:21.888Z,5.22
